createdAt,value
2017-09-24T00:00:17.372Z,14.60
2017-09-24T00:02:45.537Z,15.27
2017-09-24T00:05:13.710Z,15.53
2017-09-24T00:07:41.869Z,14.70
2017-09-24T00:10:10.028Z,14.73
2017-09-24T00:12:38.213Z,13.80
2017-09-24T00:15:06.418Z,14.83
2017-09-24T00:17:34.625Z,13.53
2017-09-24T00:20:02.807Z,16.10
2017-09-24T00:22:30.966Z,15.60
2017-09-24T00:25:00.051Z,13.53
2017-09-24T00:27:29.024Z,9.80
2017-09-24T00:29:57.207Z,8.77
2017-09-24T00:32:26.165Z,10.33
2017-09-24T00:34:54.311Z,11.70
2017-09-24T00:37:22.491Z,11.13
2017-09-24T00:39:50.674Z,13.70
2017-09-24T00:42:18.874Z,12.83
2017-09-24T00:44:47.029Z,12.53
2017-09-24T00:47:15.986Z,12.93
2017-09-24T00:49:44.925Z,13.10
2017-09-24T00:52:13.071Z,12.10
2017-09-24T00:54:41.281Z,10.80
2017-09-24T00:57:09.439Z,9.10
2017-09-24T00:59:37.622Z,9.10
2017-09-24T01:02:05.809Z,9.30
2017-09-24T01:04:33.996Z,10.00
2017-09-24T01:07:02.954Z,9.80
2017-09-24T01:09:31.118Z,11.07
2017-09-24T01:11:59.312Z,11.33
2017-09-24T01:14:27.469Z,9.83
2017-09-24T01:16:55.627Z,10.70
2017-09-24T01:19:23.827Z,9.90
2017-09-24T01:21:52.017Z,9.30
2017-09-24T01:24:20.250Z,9.07
2017-09-24T01:26:48.429Z,10.20
2017-09-24T01:29:16.682Z,10.77
2017-09-24T01:31:45.612Z,12.10
2017-09-24T01:34:13.802Z,13.10
2017-09-24T01:36:41.957Z,12.80
2017-09-24T01:39:10.130Z,14.87
2017-09-24T01:41:38.311Z,11.50
2017-09-24T01:44:06.522Z,13.00
2017-09-24T01:46:35.469Z,12.80
2017-09-24T01:49:03.653Z,13.20
2017-09-24T01:51:31.824Z,13.40
2017-09-24T01:54:00.058Z,12.63
2017-09-24T01:56:28.253Z,13.60
2017-09-24T01:58:56.428Z,14.07
2017-09-24T02:01:24.633Z,13.93
2017-09-24T02:03:52.797Z,13.00
2017-09-24T02:06:20.974Z,13.70
2017-09-24T02:08:49.174Z,12.03
2017-09-24T02:11:18.117Z,13.77
2017-09-24T02:13:46.315Z,12.93
2017-09-24T02:16:14.473Z,12.83
2017-09-24T02:18:43.457Z,14.13
2017-09-24T02:21:12.879Z,13.50
2017-09-24T02:23:41.045Z,11.90
2017-09-24T02:26:09.991Z,12.50
2017-09-24T02:28:38.212Z,12.27
2017-09-24T02:31:06.371Z,11.50
2017-09-24T02:33:34.544Z,10.80
2017-09-24T02:36:02.792Z,11.97
2017-09-24T02:38:31.727Z,10.10
2017-09-24T02:40:59.901Z,10.97
2017-09-24T02:43:28.081Z,10.13
2017-09-24T02:45:56.240Z,11.67
2017-09-24T02:48:24.498Z,10.80
2017-09-24T02:50:52.670Z,11.10
2017-09-24T02:53:20.841Z,9.13
2017-09-24T02:55:49.013Z,11.70
2017-09-24T02:58:17.206Z,11.50
2017-09-24T03:00:45.400Z,10.90
2017-09-24T03:03:13.578Z,13.10
2017-09-24T03:05:43.224Z,13.93
2017-09-24T03:08:12.174Z,13.63
2017-09-24T03:10:40.344Z,13.03
2017-09-24T03:13:08.503Z,13.30
2017-09-24T03:15:36.685Z,14.40
2017-09-24T03:18:04.837Z,14.50
2017-09-24T03:20:33.030Z,14.07
2017-09-24T03:23:01.215Z,13.53
2017-09-24T03:25:30.166Z,13.53
2017-09-24T03:27:58.342Z,14.23
2017-09-24T03:30:26.538Z,13.70
2017-09-24T03:32:56.361Z,12.50
2017-09-24T03:35:24.534Z,10.57
2017-09-24T03:37:52.689Z,9.37
2017-09-24T03:40:20.887Z,10.00
2017-09-24T03:42:49.060Z,10.67
2017-09-24T03:45:17.240Z,11.60
2017-09-24T03:47:45.412Z,11.13
2017-09-24T03:50:13.628Z,13.40
2017-09-24T03:52:42.572Z,14.10
2017-09-24T03:55:10.746Z,14.10
2017-09-24T03:57:39.784Z,14.70
2017-09-24T04:00:07.965Z,14.67
2017-09-24T04:02:36.922Z,15.30
2017-09-24T04:05:05.081Z,15.43
2017-09-24T04:07:33.277Z,15.63
2017-09-24T04:10:01.447Z,13.83
2017-09-24T04:12:29.610Z,17.00
2017-09-24T04:14:57.793Z,15.27
2017-09-24T04:17:25.971Z,16.40
2017-09-24T04:19:54.165Z,17.13
2017-09-24T04:22:23.103Z,17.10
2017-09-24T04:24:51.278Z,18.57
2017-09-24T04:27:20.207Z,19.07
2017-09-24T04:29:48.396Z,16.50
2017-09-24T04:32:17.339Z,17.90
2017-09-24T04:34:45.511Z,16.90
2017-09-24T04:37:13.714Z,17.40
2017-09-24T04:39:41.898Z,15.43
2017-09-24T04:42:10.080Z,18.77
2017-09-24T04:44:39.057Z,17.17
2017-09-24T04:47:07.242Z,16.50
2017-09-24T04:49:35.402Z,16.37
2017-09-24T04:52:03.570Z,16.53
2017-09-24T04:54:31.747Z,16.97
2017-09-24T04:56:59.921Z,15.97
2017-09-24T04:59:28.098Z,16.00
2017-09-24T05:01:56.277Z,15.73
2017-09-24T05:04:24.453Z,16.10
2017-09-24T05:06:52.634Z,16.63
2017-09-24T05:09:20.789Z,16.77
2017-09-24T05:11:48.983Z,14.43
2017-09-24T05:14:17.160Z,11.77
2017-09-24T05:16:45.327Z,12.23
2017-09-24T05:19:13.508Z,9.60
2017-09-24T05:21:42.466Z,10.47
2017-09-24T05:24:10.655Z,12.33
2017-09-24T05:26:40.371Z,13.50
2017-09-24T05:29:08.556Z,13.00
2017-09-24T05:31:36.717Z,13.97
2017-09-24T05:34:04.885Z,13.63
2017-09-24T05:36:33.084Z,12.70
2017-09-24T05:39:02.048Z,14.37
2017-09-24T05:41:30.227Z,14.30
2017-09-24T05:43:58.510Z,13.33
2017-09-24T05:46:26.705Z,13.70
2017-09-24T05:48:56.379Z,13.07
2017-09-24T05:51:24.567Z,13.63
2017-09-24T05:53:52.724Z,12.27
2017-09-24T05:56:20.897Z,12.17
2017-09-24T05:58:49.070Z,12.23
2017-09-24T06:01:17.274Z,12.30
2017-09-24T06:03:45.473Z,13.23
2017-09-24T06:06:14.387Z,13.30
2017-09-24T06:08:42.590Z,13.67
2017-09-24T06:11:10.763Z,13.70
2017-09-24T06:13:39.841Z,12.97
2017-09-24T06:16:08.002Z,14.50
2017-09-24T06:18:36.191Z,13.70
2017-09-24T06:21:05.457Z,13.50
2017-09-24T06:23:34.405Z,13.70
2017-09-24T06:26:02.583Z,13.70
2017-09-24T06:28:30.752Z,14.70
2017-09-24T06:30:58.934Z,15.80
2017-09-24T06:33:28.064Z,16.23
2017-09-24T06:35:57.007Z,15.70
2017-09-24T06:38:25.173Z,16.80
2017-09-24T06:40:53.344Z,16.60
2017-09-24T06:43:21.529Z,16.33
2017-09-24T06:45:50.633Z,14.97
2017-09-24T06:48:18.812Z,17.17
2017-09-24T06:50:46.987Z,18.87
2017-09-24T06:53:15.174Z,21.10
2017-09-24T06:55:44.131Z,20.10
2017-09-24T06:58:12.322Z,22.37
2017-09-24T07:00:40.540Z,22.80
2017-09-24T07:03:09.479Z,22.40
2017-09-24T07:05:37.656Z,25.60
2017-09-24T07:08:05.820Z,25.10
2017-09-24T07:10:34.467Z,27.67
2017-09-24T07:13:02.672Z,26.17
2017-09-24T07:15:31.893Z,27.10
2017-09-24T07:18:00.097Z,25.87
2017-09-24T07:20:29.046Z,30.20
2017-09-24T07:22:57.211Z,27.00
2017-09-24T07:25:25.429Z,25.50
2017-09-24T07:27:53.596Z,24.30
2017-09-24T07:30:21.856Z,25.47
2017-09-24T07:32:50.028Z,25.90
2017-09-24T07:35:19.177Z,26.20
2017-09-24T07:37:48.352Z,25.50
2017-09-24T07:40:17.317Z,26.37
2017-09-24T07:42:45.511Z,26.67
2017-09-24T07:45:14.665Z,25.10
2017-09-24T07:47:42.866Z,25.80
2017-09-24T07:50:11.124Z,25.83
2017-09-24T07:52:39.309Z,25.10
2017-09-24T07:55:08.249Z,27.13
2017-09-24T07:57:36.422Z,23.87
2017-09-24T08:00:04.917Z,27.70
2017-09-24T08:02:33.101Z,30.30
2017-09-24T08:05:01.369Z,31.13
2017-09-24T08:07:29.560Z,29.30
2017-09-24T08:09:57.738Z,32.27
2017-09-24T08:12:26.119Z,29.87
2017-09-24T08:14:55.154Z,32.90
2017-09-24T08:17:24.128Z,30.17
2017-09-24T08:19:52.348Z,32.33
2017-09-24T08:22:20.589Z,32.03
2017-09-24T08:24:48.808Z,32.80
2017-09-24T08:27:17.007Z,30.57
2017-09-24T08:29:45.170Z,29.37
2017-09-24T08:32:13.401Z,28.50
2017-09-24T08:34:42.351Z,29.53
2017-09-24T08:37:10.581Z,28.07
2017-09-24T08:39:40.946Z,35.30
2017-09-24T08:42:09.132Z,34.17
2017-09-24T08:44:37.373Z,29.43
2017-09-24T08:47:05.551Z,30.87
2017-09-24T08:49:33.777Z,32.93
2017-09-24T08:52:01.938Z,30.37
2017-09-24T08:54:31.189Z,29.80
2017-09-24T08:56:59.363Z,32.33
2017-09-24T08:59:27.837Z,31.67
2017-09-24T09:01:56.100Z,33.00
2017-09-24T09:04:25.051Z,31.13
2017-09-24T09:06:53.231Z,29.90
2017-09-24T09:09:22.390Z,31.00
2017-09-24T09:11:50.625Z,29.70
2017-09-24T09:14:20.673Z,29.40
2017-09-24T09:16:48.918Z,29.73
2017-09-24T09:19:17.907Z,29.80
2017-09-24T09:21:46.133Z,27.67
2017-09-24T09:24:14.373Z,25.17
2017-09-24T09:26:43.368Z,27.70
2017-09-24T09:29:12.393Z,28.77
2017-09-24T09:31:40.675Z,26.20
2017-09-24T09:34:20.701Z,25.90
2017-09-24T09:36:48.918Z,27.60
2017-09-24T09:39:17.902Z,26.23
2017-09-24T09:41:46.081Z,27.27
2017-09-24T09:44:26.080Z,27.07
2017-09-24T09:47:05.818Z,26.20
2017-09-24T09:49:34.820Z,27.10
2017-09-24T09:52:04.720Z,23.10
2017-09-24T09:54:33.754Z,23.50
2017-09-24T09:57:02.920Z,23.50
2017-09-24T09:59:31.876Z,24.07
2017-09-24T10:02:00.100Z,25.30
2017-09-24T10:04:28.316Z,23.43
2017-09-24T10:07:09.475Z,23.47
2017-09-24T10:09:49.479Z,26.37
2017-09-24T10:12:18.518Z,20.53
2017-09-24T10:14:46.795Z,22.47
2017-09-24T10:17:15.802Z,22.50
2017-09-24T10:19:45.088Z,22.87
2017-09-24T10:22:13.268Z,24.53
2017-09-24T10:24:41.479Z,20.63
2017-09-24T10:27:10.665Z,24.20
2017-09-24T10:29:38.854Z,22.80
2017-09-24T10:32:08.046Z,22.00
2017-09-24T10:34:36.269Z,21.50
2017-09-24T10:37:04.480Z,24.30
2017-09-24T10:39:32.909Z,23.70
2017-09-24T10:42:02.157Z,24.70
2017-09-24T10:44:30.406Z,23.37
2017-09-24T10:46:58.619Z,25.17
2017-09-24T10:49:26.854Z,26.13
2017-09-24T10:51:55.099Z,23.60
2017-09-24T10:54:23.349Z,23.93
2017-09-24T10:56:52.359Z,25.57
2017-09-24T10:59:21.398Z,25.57
2017-09-24T11:01:49.613Z,23.70
2017-09-24T11:04:17.832Z,20.43
2017-09-24T11:06:46.029Z,19.80
2017-09-24T11:09:14.236Z,22.80
2017-09-24T11:11:42.475Z,22.73
2017-09-24T11:14:10.691Z,20.50
2017-09-24T11:16:39.867Z,20.17
2017-09-24T11:19:08.054Z,19.77
2017-09-24T11:21:37.054Z,22.10
2017-09-24T11:24:05.292Z,22.30
2017-09-24T11:26:33.503Z,22.27
2017-09-24T11:29:01.881Z,23.60
2017-09-24T11:31:30.135Z,21.03
2017-09-24T11:33:58.343Z,19.80
2017-09-24T11:36:26.596Z,22.90
2017-09-24T11:38:54.803Z,22.73
2017-09-24T11:41:24.815Z,22.30
2017-09-24T11:43:53.026Z,21.43
2017-09-24T11:46:22.198Z,21.07
2017-09-24T11:49:10.409Z,20.47
2017-09-24T11:51:38.610Z,19.70
2017-09-24T11:54:07.594Z,18.53
2017-09-24T11:56:36.186Z,19.97
2017-09-24T11:59:05.173Z,19.73
2017-09-24T12:01:33.366Z,18.80
2017-09-24T12:04:02.339Z,23.10
2017-09-24T12:06:30.579Z,21.30
2017-09-24T12:08:58.799Z,17.10
2017-09-24T12:11:26.928Z,18.07
2017-09-24T12:13:55.885Z,16.90
2017-09-24T12:16:24.027Z,17.93
2017-09-24T12:18:52.174Z,17.00
2017-09-24T12:21:20.350Z,15.87
2017-09-24T12:23:48.487Z,17.47
2017-09-24T12:26:16.640Z,18.23
2017-09-24T12:28:44.764Z,17.33
2017-09-24T12:31:12.923Z,16.57
2017-09-24T12:33:41.092Z,15.23
2017-09-24T12:36:10.002Z,12.87
2017-09-24T12:38:38.161Z,12.87
2017-09-24T12:41:07.133Z,14.70
2017-09-24T12:43:36.218Z,13.10
2017-09-24T12:46:05.165Z,15.17
2017-09-24T12:48:33.316Z,12.77
2017-09-24T12:51:01.463Z,15.83
2017-09-24T12:53:30.387Z,16.60
2017-09-24T12:55:58.639Z,16.60
2017-09-24T12:58:27.556Z,17.40
2017-09-24T13:00:55.730Z,15.17
2017-09-24T13:03:23.866Z,15.87
2017-09-24T13:05:52.804Z,16.00
2017-09-24T13:08:20.983Z,15.10
2017-09-24T13:10:49.117Z,15.53
2017-09-24T13:13:17.266Z,13.30
2017-09-24T13:15:46.168Z,11.70
2017-09-24T13:18:14.366Z,12.03
2017-09-24T13:20:42.527Z,14.47
2017-09-24T13:23:10.701Z,11.50
2017-09-24T13:25:38.863Z,13.30
2017-09-24T13:28:07.027Z,14.70
2017-09-24T13:30:35.176Z,13.10
2017-09-24T13:33:04.098Z,13.27
2017-09-24T13:35:32.250Z,15.17
2017-09-24T13:38:01.473Z,13.93
2017-09-24T13:40:29.604Z,12.10
2017-09-24T13:42:57.786Z,11.20
2017-09-24T13:45:26.717Z,10.53
2017-09-24T13:47:54.876Z,12.30
2017-09-24T13:50:23.012Z,10.83
2017-09-24T13:52:51.979Z,11.67
2017-09-24T13:55:20.102Z,11.50
2017-09-24T13:57:48.285Z,11.60
2017-09-24T14:00:16.434Z,12.53
2017-09-24T14:02:44.583Z,11.70
2017-09-24T14:05:13.528Z,14.10
2017-09-24T14:07:41.670Z,11.63
2017-09-24T14:10:09.834Z,11.03
2017-09-24T14:12:38.734Z,11.87
2017-09-24T14:15:06.897Z,12.30
2017-09-24T14:17:35.033Z,12.20
2017-09-24T14:20:03.209Z,12.63
2017-09-24T14:22:31.333Z,13.13
2017-09-24T14:24:59.484Z,13.80
2017-09-24T14:27:28.402Z,18.27
2017-09-24T14:29:56.575Z,15.80
2017-09-24T14:32:24.727Z,13.47
2017-09-24T14:34:52.914Z,14.60
2017-09-24T14:37:21.060Z,12.10
2017-09-24T14:39:49.974Z,12.43
2017-09-24T14:42:18.116Z,12.43
2017-09-24T14:44:46.269Z,13.33
2017-09-24T14:47:15.188Z,13.77
2017-09-24T14:49:43.324Z,14.93
2017-09-24T14:52:11.497Z,13.00
2017-09-24T14:54:39.650Z,12.87
2017-09-24T14:57:07.820Z,11.53
2017-09-24T14:59:35.961Z,12.10
2017-09-24T15:02:04.098Z,11.90
2017-09-24T15:04:33.040Z,13.87
2017-09-24T15:07:01.172Z,10.53
2017-09-24T15:09:29.352Z,12.10
2017-09-24T15:11:57.505Z,13.37
2017-09-24T15:14:26.442Z,12.03
2017-09-24T15:16:54.596Z,11.10
2017-09-24T15:19:22.734Z,12.00
2017-09-24T15:21:50.880Z,12.40
2017-09-24T15:24:19.068Z,13.10
2017-09-24T15:26:47.234Z,13.03
2017-09-24T15:29:15.381Z,14.30
2017-09-24T15:31:43.568Z,14.70
2017-09-24T15:34:11.722Z,17.57
2017-09-24T15:36:39.907Z,14.10
2017-09-24T15:39:08.117Z,13.30
2017-09-24T15:41:37.059Z,14.63
2017-09-24T15:44:05.217Z,12.97
2017-09-24T15:46:33.366Z,14.93
2017-09-24T15:49:01.551Z,15.10
2017-09-24T15:51:29.754Z,15.10
2017-09-24T15:53:57.932Z,13.27
2017-09-24T15:56:26.149Z,13.13
2017-09-24T15:58:54.325Z,14.13
2017-09-24T16:01:22.500Z,14.67
2017-09-24T16:03:51.411Z,13.67
2017-09-24T16:06:19.607Z,13.30
2017-09-24T16:08:47.758Z,15.13
2017-09-24T16:11:15.918Z,14.03
2017-09-24T16:13:44.068Z,16.23
2017-09-24T16:16:13.017Z,13.57
2017-09-24T16:18:41.217Z,16.50
2017-09-24T16:21:09.352Z,17.53
2017-09-24T16:23:37.519Z,18.63
2017-09-24T16:26:05.665Z,19.03
2017-09-24T16:28:33.845Z,16.80
2017-09-24T16:31:02.015Z,17.47
2017-09-24T16:33:30.143Z,16.43
2017-09-24T16:35:58.298Z,21.93
2017-09-24T16:38:26.437Z,18.90
2017-09-24T16:40:55.378Z,19.30
2017-09-24T16:43:23.513Z,17.70
2017-09-24T16:45:51.658Z,18.93
2017-09-24T16:48:19.818Z,18.27
2017-09-24T16:50:47.981Z,19.40
2017-09-24T16:53:16.885Z,19.13
2017-09-24T16:55:45.463Z,20.70
2017-09-24T16:58:13.620Z,20.23
2017-09-24T17:00:42.583Z,20.40
2017-09-24T17:03:10.765Z,20.27
2017-09-24T17:05:38.919Z,19.10
2017-09-24T17:08:07.097Z,18.10
2017-09-24T17:10:35.240Z,19.53
2017-09-24T17:13:04.163Z,18.07
2017-09-24T17:15:32.330Z,17.33
2017-09-24T17:18:00.504Z,19.30
2017-09-24T17:20:29.415Z,19.63
2017-09-24T17:22:58.342Z,20.07
2017-09-24T17:25:26.533Z,20.33
2017-09-24T17:27:54.693Z,21.60
2017-09-24T17:30:22.875Z,17.73
2017-09-24T17:32:51.016Z,17.93
2017-09-24T17:35:19.172Z,17.53
2017-09-24T17:37:48.084Z,17.70
2017-09-24T17:40:16.244Z,15.83
2017-09-24T17:42:44.383Z,16.53
2017-09-24T17:45:12.528Z,16.33
2017-09-24T17:47:40.708Z,15.83
2017-09-24T17:50:08.852Z,14.87
2017-09-24T17:52:37.020Z,15.10
2017-09-24T17:55:05.154Z,14.30
2017-09-24T17:57:33.344Z,15.27
2017-09-24T18:00:01.533Z,14.63
2017-09-24T18:02:29.666Z,15.13
2017-09-24T18:04:58.642Z,15.13
2017-09-24T18:07:26.818Z,14.87
2017-09-24T18:09:55.038Z,16.73
2017-09-24T18:12:23.184Z,15.50
2017-09-24T18:14:52.120Z,18.00
2017-09-24T18:17:21.075Z,19.13
2017-09-24T18:19:50.020Z,16.83
2017-09-24T18:22:18.185Z,17.80
2017-09-24T18:24:46.352Z,17.23
2017-09-24T18:27:14.522Z,17.00
2017-09-24T18:29:42.692Z,16.13
2017-09-24T18:32:10.820Z,16.30
2017-09-24T18:34:39.005Z,17.90
2017-09-24T18:37:07.140Z,18.77
2017-09-24T18:39:36.099Z,23.33
2017-09-24T18:42:04.245Z,21.93
2017-09-24T18:44:32.432Z,21.90
2017-09-24T18:47:00.572Z,19.77
2017-09-24T18:49:28.750Z,19.50
2017-09-24T18:51:56.903Z,18.00
2017-09-24T18:54:25.852Z,15.43
2017-09-24T18:56:53.997Z,16.60
2017-09-24T18:59:22.191Z,17.63
2017-09-24T19:01:50.337Z,19.00
2017-09-24T19:04:19.242Z,19.10
2017-09-24T19:06:47.422Z,15.97
2017-09-24T19:09:15.615Z,16.60
2017-09-24T19:11:43.792Z,17.60
2017-09-24T19:14:11.958Z,18.00
2017-09-24T19:16:40.152Z,20.07
2017-09-24T19:19:09.083Z,21.30
2017-09-24T19:21:37.230Z,21.13
2017-09-24T19:24:05.375Z,17.60
2017-09-24T19:26:33.655Z,17.53
2017-09-24T19:29:01.811Z,18.17
2017-09-24T19:31:29.967Z,15.87
2017-09-24T19:33:58.137Z,15.73
2017-09-24T19:36:26.331Z,14.90
2017-09-24T19:38:54.525Z,15.80
2017-09-24T19:41:23.450Z,17.70
2017-09-24T19:43:52.399Z,16.50
2017-09-24T19:46:20.573Z,18.40
2017-09-24T19:48:48.759Z,17.20
2017-09-24T19:51:17.707Z,16.70
2017-09-24T19:53:45.866Z,16.10
2017-09-24T19:56:14.089Z,16.80
2017-09-24T19:58:42.256Z,15.90
2017-09-24T20:01:11.169Z,16.20
2017-09-24T20:03:39.360Z,16.60
2017-09-24T20:06:07.497Z,14.67
2017-09-24T20:08:36.437Z,15.53
2017-09-24T20:11:04.609Z,15.60
2017-09-24T20:13:32.775Z,16.63
2017-09-24T20:16:00.937Z,14.83
2017-09-24T20:18:29.091Z,16.00
2017-09-24T20:20:57.266Z,16.20
2017-09-24T20:23:25.410Z,17.27
2017-09-24T20:25:54.356Z,17.23
2017-09-24T20:28:22.507Z,15.70
2017-09-24T20:30:50.651Z,16.03
2017-09-24T20:33:19.607Z,16.83
2017-09-24T20:35:47.743Z,17.10
2017-09-24T20:38:15.897Z,16.23
2017-09-24T20:40:44.044Z,17.80
2017-09-24T20:43:12.993Z,16.40
2017-09-24T20:45:41.163Z,16.50
2017-09-24T20:48:09.533Z,17.13
2017-09-24T20:50:37.663Z,17.23
2017-09-24T20:53:05.793Z,17.07
2017-09-24T20:55:33.958Z,15.83
2017-09-24T20:58:02.123Z,15.13
2017-09-24T21:00:30.295Z,15.87
2017-09-24T21:02:58.438Z,16.23
2017-09-24T21:05:26.582Z,15.77
2017-09-24T21:07:55.501Z,16.83
2017-09-24T21:10:23.659Z,16.60
2017-09-24T21:12:52.587Z,18.80
2017-09-24T21:15:20.726Z,16.87
2017-09-24T21:17:48.880Z,17.00
2017-09-24T21:20:17.033Z,16.80
2017-09-24T21:22:45.248Z,15.20
2017-09-24T21:25:13.397Z,16.60
2017-09-24T21:27:41.581Z,14.13
2017-09-24T21:30:10.484Z,15.60
2017-09-24T21:32:38.664Z,15.80
2017-09-24T21:35:06.804Z,16.50
2017-09-24T21:37:36.528Z,16.43
2017-09-24T21:40:05.486Z,16.10
2017-09-24T21:42:33.615Z,16.27
2017-09-24T21:45:02.575Z,18.70
2017-09-24T21:47:31.480Z,18.10
2017-09-24T21:49:59.651Z,23.67
2017-09-24T21:52:27.793Z,18.07
2017-09-24T21:54:56.730Z,16.90
2017-09-24T21:57:24.876Z,19.13
2017-09-24T21:59:53.024Z,22.20
2017-09-24T22:02:21.981Z,23.17
2017-09-24T22:04:50.140Z,19.50
2017-09-24T22:07:18.261Z,17.53
2017-09-24T22:09:47.188Z,18.00
2017-09-24T22:12:15.354Z,16.40
2017-09-24T22:14:44.270Z,16.93
2017-09-24T22:17:12.429Z,15.93
2017-09-24T22:19:40.548Z,15.97
2017-09-24T22:22:09.563Z,15.53
2017-09-24T22:24:38.511Z,16.50
2017-09-24T22:27:06.660Z,17.10
2017-09-24T22:29:34.806Z,17.80
2017-09-24T22:32:02.966Z,16.13
2017-09-24T22:34:31.118Z,16.77
2017-09-24T22:36:59.241Z,15.33
2017-09-24T22:39:27.409Z,16.60
2017-09-24T22:41:55.572Z,14.93
2017-09-24T22:44:24.496Z,15.70
2017-09-24T22:46:52.629Z,16.20
2017-09-24T22:49:20.855Z,15.57
2017-09-24T22:51:48.994Z,16.40
2017-09-24T22:54:17.159Z,15.70
2017-09-24T22:56:45.298Z,16.50
2017-09-24T22:59:13.475Z,17.63
2017-09-24T23:01:41.610Z,16.40
2017-09-24T23:04:09.763Z,16.77
2017-09-24T23:06:37.933Z,16.00
2017-09-24T23:09:06.097Z,16.87
2017-09-24T23:11:34.258Z,17.37
2017-09-24T23:14:02.850Z,17.90
2017-09-24T23:16:30.977Z,18.07
2017-09-24T23:18:59.105Z,17.60
2017-09-24T23:21:27.274Z,17.53
2017-09-24T23:23:55.417Z,17.60
2017-09-24T23:26:23.582Z,16.93
2017-09-24T23:28:51.708Z,16.63
2017-09-24T23:31:19.906Z,16.40
2017-09-24T23:33:48.801Z,18.10
2017-09-24T23:36:16.953Z,17.07
2017-09-24T23:38:45.881Z,15.00
2017-09-24T23:41:14.011Z,13.37
2017-09-24T23:43:42.925Z,16.20
2017-09-24T23:46:11.101Z,14.43
2017-09-24T23:48:39.279Z,17.00
2017-09-24T23:51:08.176Z,17.60
2017-09-24T23:53:36.311Z,15.83
2017-09-24T23:56:05.260Z,18.10
2017-09-24T23:58:34.165Z,17.83
